TW-0016 weather

Mackay Memorial Hospital Helipad
New Taipei City, Taipei County, Taiwan

Public forecast

Using degrees Celsius for public forecast. Weather courtesy of forecast.io.

Closest aviation weather report (METAR) to Mackay Memorial Hospital Helipad

Closest report is Taipei Songshan Airport, 6.5 nm (12.1 km) SE. Retrieved 2020/04/01 11:30 UTC (15 minutes ago):

RCSS 011130Z 09011KT 9999 FEW015 BKN028 BKN040 17/13 Q1019 NOSIG RMK A3010

Closest aviation forecast (TAF) to Mackay Memorial Hospital Helipad

Closest forecast is Taipei Songshan Airport, 6.5 nm (12.1 km) SE. Retrieved 2020/04/01 06:00 UTC (6 hours ago):

TAF RCSS 010500Z 0106/0206 09005KT 9999 FEW015 BKN032 TEMPO 0106/0112 08012KT FEW010 BKN020 BKN040